sensor_id;sensor_type;location;lat;lon;timestamp;P1;durP1;ratioP1;P2;durP2;ratioP2
42420;SDS011;28063;48.140;11.588;2023-06-14T00:00:45;1.13;;;1.10;;
42420;SDS011;28063;48.140;11.588;2023-06-14T00:03:19;1.38;;;1.17;;
42420;SDS011;28063;48.140;11.588;2023-06-14T00:05:47;0.82;;;0.82;;
42420;SDS011;28063;48.140;11.588;2023-06-14T00:08:13;1.38;;;1.25;;
42420;SDS011;28063;48.140;11.588;2023-06-14T00:10:40;1.10;;;1.00;;
42420;SDS011;28063;48.140;11.588;2023-06-14T00:13:10;1.30;;;1.20;;
42420;SDS011;28063;48.140;11.588;2023-06-14T00:15:48;1.00;;;0.90;;
42420;SDS011;28063;48.140;11.588;2023-06-14T00:18:14;1.23;;;1.05;;
42420;SDS011;28063;48.140;11.588;2023-06-14T00:20:40;0.90;;;0.90;;
42420;SDS011;28063;48.140;11.588;2023-06-14T00:23:09;0.82;;;0.82;;
42420;SDS011;28063;48.140;11.588;2023-06-14T00:25:47;1.10;;;1.10;;
42420;SDS011;28063;48.140;11.588;2023-06-14T00:28:12;0.88;;;0.88;;
42420;SDS011;28063;48.140;11.588;2023-06-14T00:30:41;1.00;;;1.00;;
42420;SDS011;28063;48.140;11.588;2023-06-14T00:33:13;1.15;;;1.15;;
42420;SDS011;28063;48.140;11.588;2023-06-14T00:35:44;0.98;;;0.98;;
42420;SDS011;28063;48.140;11.588;2023-06-14T00:38:10;0.75;;;0.75;;
42420;SDS011;28063;48.140;11.588;2023-06-14T00:40:36;1.33;;;1.00;;
42420;SDS011;28063;48.140;11.588;2023-06-14T00:43:04;1.02;;;0.93;;
42420;SDS011;28063;48.140;11.588;2023-06-14T00:45:33;0.80;;;0.80;;
42420;SDS011;28063;48.140;11.588;2023-06-14T00:48:09;1.33;;;1.23;;
42420;SDS011;28063;48.140;11.588;2023-06-14T00:50:36;1.17;;;1.10;;
42420;SDS011;28063;48.140;11.588;2023-06-14T00:53:06;1.73;;;1.20;;
42420;SDS011;28063;48.140;11.588;2023-06-14T00:55:40;1.45;;;1.27;;
42420;SDS011;28063;48.140;11.588;2023-06-14T00:58:06;0.98;;;0.93;;
42420;SDS011;28063;48.140;11.588;2023-06-14T01:00:36;0.80;;;0.80;;
42420;SDS011;28063;48.140;11.588;2023-06-14T01:03:07;0.95;;;0.95;;
42420;SDS011;28063;48.140;11.588;2023-06-14T01:05:56;0.98;;;0.98;;
42420;SDS011;28063;48.140;11.588;2023-06-14T01:08:57;1.25;;;1.15;;
42420;SDS011;28063;48.140;11.588;2023-06-14T01:11:24;1.08;;;0.98;;
42420;SDS011;28063;48.140;11.588;2023-06-14T01:14:00;0.80;;;0.80;;
42420;SDS011;28063;48.140;11.588;2023-06-14T01:16:35;0.90;;;0.90;;
42420;SDS011;28063;48.140;11.588;2023-06-14T01:19:09;1.23;;;1.03;;
42420;SDS011;28063;48.140;11.588;2023-06-14T01:21:38;0.90;;;0.90;;
42420;SDS011;28063;48.140;11.588;2023-06-14T01:24:08;0.80;;;0.77;;
42420;SDS011;28063;48.140;11.588;2023-06-14T01:26:36;0.80;;;0.80;;
42420;SDS011;28063;48.140;11.588;2023-06-14T01:29:10;0.60;;;0.60;;
42420;SDS011;28063;48.140;11.588;2023-06-14T01:31:45;0.73;;;0.60;;
42420;SDS011;28063;48.140;11.588;2023-06-14T01:34:15;0.70;;;0.70;;
42420;SDS011;28063;48.140;11.588;2023-06-14T01:36:44;0.70;;;0.70;;
42420;SDS011;28063;48.140;11.588;2023-06-14T01:39:16;0.75;;;0.75;;
42420;SDS011;28063;48.140;11.588;2023-06-14T01:41:45;0.70;;;0.70;;
42420;SDS011;28063;48.140;11.588;2023-06-14T01:44:13;0.65;;;0.65;;
42420;SDS011;28063;48.140;11.588;2023-06-14T01:46:40;0.68;;;0.68;;
42420;SDS011;28063;48.140;11.588;2023-06-14T01:49:10;0.50;;;0.50;;
42420;SDS011;28063;48.140;11.588;2023-06-14T01:51:39;0.65;;;0.60;;
42420;SDS011;28063;48.140;11.588;2023-06-14T01:54:04;0.63;;;0.63;;
42420;SDS011;28063;48.140;11.588;2023-06-14T01:56:30;0.70;;;0.70;;
42420;SDS011;28063;48.140;11.588;2023-06-14T01:59:04;0.70;;;0.70;;
42420;SDS011;28063;48.140;11.588;2023-06-14T02:01:32;0.90;;;0.90;;
42420;SDS011;28063;48.140;11.588;2023-06-14T02:04:01;0.73;;;0.73;;
42420;SDS011;28063;48.140;11.588;2023-06-14T02:06:27;0.80;;;0.80;;
42420;SDS011;28063;48.140;11.588;2023-06-14T02:08:53;0.70;;;0.70;;
42420;SDS011;28063;48.140;11.588;2023-06-14T02:11:24;0.60;;;0.60;;
42420;SDS011;28063;48.140;11.588;2023-06-14T02:13:52;0.63;;;0.63;;
42420;SDS011;28063;48.140;11.588;2023-06-14T02:16:27;0.63;;;0.63;;
42420;SDS011;28063;48.140;11.588;2023-06-14T02:18:54;0.80;;;0.80;;
42420;SDS011;28063;48.140;11.588;2023-06-14T02:21:31;1.02;;;0.93;;
42420;SDS011;28063;48.140;11.588;2023-06-14T02:24:02;0.70;;;0.70;;
42420;SDS011;28063;48.140;11.588;2023-06-14T02:29:03;0.80;;;0.80;;
42420;SDS011;28063;48.140;11.588;2023-06-14T02:31:30;0.95;;;0.90;;
42420;SDS011;28063;48.140;11.588;2023-06-14T02:33:59;1.13;;;0.85;;
42420;SDS011;28063;48.140;11.588;2023-06-14T02:36:36;0.80;;;0.80;;
42420;SDS011;28063;48.140;11.588;2023-06-14T02:39:09;0.80;;;0.80;;
42420;SDS011;28063;48.140;11.588;2023-06-14T02:41:56;1.10;;;0.90;;
42420;SDS011;28063;48.140;11.588;2023-06-14T02:44:25;1.17;;;1.13;;
42420;SDS011;28063;48.140;11.588;2023-06-14T02:46:55;0.85;;;0.85;;
42420;SDS011;28063;48.140;11.588;2023-06-14T02:49:22;2.28;;;1.00;;
42420;SDS011;28063;48.140;11.588;2023-06-14T02:51:57;1.20;;;1.10;;
42420;SDS011;28063;48.140;11.588;2023-06-14T02:54:22;1.02;;;0.90;;
42420;SDS011;28063;48.140;11.588;2023-06-14T02:56:48;1.52;;;1.15;;
42420;SDS011;28063;48.140;11.588;2023-06-14T02:59:27;1.38;;;1.10;;
42420;SDS011;28063;48.140;11.588;2023-06-14T03:02:22;1.40;;;0.95;;
42420;SDS011;28063;48.140;11.588;2023-06-14T03:04:51;0.82;;;0.82;;
42420;SDS011;28063;48.140;11.588;2023-06-14T03:07:19;0.98;;;0.98;;
42420;SDS011;28063;48.140;11.588;2023-06-14T03:09:47;2.67;;;0.90;;
42420;SDS011;28063;48.140;11.588;2023-06-14T03:12:13;1.08;;;0.98;;
42420;SDS011;28063;48.140;11.588;2023-06-14T03:14:41;1.23;;;1.10;;
42420;SDS011;28063;48.140;11.588;2023-06-14T03:17:10;1.10;;;1.00;;
42420;SDS011;28063;48.140;11.588;2023-06-14T03:19:39;2.03;;;1.00;;
42420;SDS011;28063;48.140;11.588;2023-06-14T03:22:06;1.38;;;1.27;;
42420;SDS011;28063;48.140;11.588;2023-06-14T03:24:36;1.05;;;1.05;;
42420;SDS011;28063;48.140;11.588;2023-06-14T03:27:03;1.50;;;1.40;;
42420;SDS011;28063;48.140;11.588;2023-06-14T03:29:29;1.52;;;1.42;;
42420;SDS011;28063;48.140;11.588;2023-06-14T03:32:00;1.58;;;1.27;;
42420;SDS011;28063;48.140;11.588;2023-06-14T03:34:27;1.45;;;1.10;;
42420;SDS011;28063;48.140;11.588;2023-06-14T03:37:04;1.92;;;1.38;;
42420;SDS011;28063;48.140;11.588;2023-06-14T03:39:30;1.42;;;1.33;;
42420;SDS011;28063;48.140;11.588;2023-06-14T03:41:56;1.60;;;1.30;;
42420;SDS011;28063;48.140;11.588;2023-06-14T03:44:22;1.40;;;1.30;;
42420;SDS011;28063;48.140;11.588;2023-06-14T03:46:51;1.20;;;1.10;;
42420;SDS011;28063;48.140;11.588;2023-06-14T03:49:20;2.23;;;1.17;;
42420;SDS011;28063;48.140;11.588;2023-06-14T03:51:49;1.20;;;0.90;;
42420;SDS011;28063;48.140;11.588;2023-06-14T03:54:20;1.10;;;1.00;;
42420;SDS011;28063;48.140;11.588;2023-06-14T03:56:52;1.63;;;1.35;;
42420;SDS011;28063;48.140;11.588;2023-06-14T03:59:21;1.90;;;1.25;;
42420;SDS011;28063;48.140;11.588;2023-06-14T04:01:50;1.40;;;1.30;;
42420;SDS011;28063;48.140;11.588;2023-06-14T04:04:19;2.05;;;1.85;;
42420;SDS011;28063;48.140;11.588;2023-06-14T04:06:48;1.90;;;1.80;;
42420;SDS011;28063;48.140;11.588;2023-06-14T04:09:32;3.33;;;1.98;;
42420;SDS011;28063;48.140;11.588;2023-06-14T04:12:00;2.30;;;2.00;;
42420;SDS011;28063;48.140;11.588;2023-06-14T04:14:26;2.72;;;2.00;;
42420;SDS011;28063;48.140;11.588;2023-06-14T04:16:55;2.55;;;1.70;;
42420;SDS011;28063;48.140;11.588;2023-06-14T04:19:24;2.33;;;2.00;;
42420;SDS011;28063;48.140;11.588;2023-06-14T04:21:55;2.30;;;1.88;;
42420;SDS011;28063;48.140;11.588;2023-06-14T04:24:23;2.00;;;1.73;;
42420;SDS011;28063;48.140;11.588;2023-06-14T04:27:10;3.42;;;2.20;;
42420;SDS011;28063;48.140;11.588;2023-06-14T04:29:36;3.28;;;2.47;;
42420;SDS011;28063;48.140;11.588;2023-06-14T04:32:02;2.80;;;2.20;;
42420;SDS011;28063;48.140;11.588;2023-06-14T04:34:31;2.20;;;2.00;;
42420;SDS011;28063;48.140;11.588;2023-06-14T04:37:02;3.53;;;2.00;;
42420;SDS011;28063;48.140;11.588;2023-06-14T04:43:02;1.75;;;1.65;;
42420;SDS011;28063;48.140;11.588;2023-06-14T04:48:06;1.95;;;1.65;;
42420;SDS011;28063;48.140;11.588;2023-06-14T04:50:34;2.40;;;1.80;;
42420;SDS011;28063;48.140;11.588;2023-06-14T04:53:02;1.33;;;1.23;;
42420;SDS011;28063;48.140;11.588;2023-06-14T04:55:37;1.40;;;1.30;;
42420;SDS011;28063;48.140;11.588;2023-06-14T04:58:03;1.52;;;1.42;;
42420;SDS011;28063;48.140;11.588;2023-06-14T05:00:32;1.88;;;1.40;;
42420;SDS011;28063;48.140;11.588;2023-06-14T05:02:57;1.67;;;1.55;;
42420;SDS011;28063;48.140;11.588;2023-06-14T05:05:23;1.50;;;1.40;;
42420;SDS011;28063;48.140;11.588;2023-06-14T05:07:55;1.75;;;1.50;;
42420;SDS011;28063;48.140;11.588;2023-06-14T05:10:26;1.43;;;1.20;;
42420;SDS011;28063;48.140;11.588;2023-06-14T05:12:52;1.38;;;1.17;;
42420;SDS011;28063;48.140;11.588;2023-06-14T05:15:21;1.10;;;1.00;;
42420;SDS011;28063;48.140;11.588;2023-06-14T05:17:50;0.80;;;0.80;;
42420;SDS011;28063;48.140;11.588;2023-06-14T05:20:20;1.30;;;1.20;;
42420;SDS011;28063;48.140;11.588;2023-06-14T05:23:09;1.63;;;1.52;;
42420;SDS011;28063;48.140;11.588;2023-06-14T05:25:43;1.30;;;1.17;;
42420;SDS011;28063;48.140;11.588;2023-06-14T05:28:12;1.20;;;1.10;;
42420;SDS011;28063;48.140;11.588;2023-06-14T05:30:38;0.90;;;0.90;;
42420;SDS011;28063;48.140;11.588;2023-06-14T05:33:05;1.15;;;1.10;;
42420;SDS011;28063;48.140;11.588;2023-06-14T05:35:31;0.80;;;0.80;;
42420;SDS011;28063;48.140;11.588;2023-06-14T05:37:57;1.20;;;1.10;;
42420;SDS011;28063;48.140;11.588;2023-06-14T05:40:23;1.50;;;1.40;;
42420;SDS011;28063;48.140;11.588;2023-06-14T05:42:48;1.90;;;1.80;;
42420;SDS011;28063;48.140;11.588;2023-06-14T05:45:15;1.85;;;1.75;;
42420;SDS011;28063;48.140;11.588;2023-06-14T05:47:46;1.63;;;1.52;;
42420;SDS011;28063;48.140;11.588;2023-06-14T05:50:12;1.95;;;1.85;;
42420;SDS011;28063;48.140;11.588;2023-06-14T05:52:43;1.63;;;1.52;;
42420;SDS011;28063;48.140;11.588;2023-06-14T05:55:15;1.95;;;1.85;;
42420;SDS011;28063;48.140;11.588;2023-06-14T05:57:45;2.03;;;1.80;;
42420;SDS011;28063;48.140;11.588;2023-06-14T06:00:14;2.10;;;2.00;;
42420;SDS011;28063;48.140;11.588;2023-06-14T06:02:46;1.80;;;1.70;;
42420;SDS011;28063;48.140;11.588;2023-06-14T06:05:20;1.58;;;1.45;;
42420;SDS011;28063;48.140;11.588;2023-06-14T06:07:51;3.58;;;2.25;;
42420;SDS011;28063;48.140;11.588;2023-06-14T06:10:20;2.30;;;2.10;;
42420;SDS011;28063;48.140;11.588;2023-06-14T06:12:48;1.60;;;1.50;;
42420;SDS011;28063;48.140;11.588;2023-06-14T06:17:45;2.03;;;1.92;;
42420;SDS011;28063;48.140;11.588;2023-06-14T06:20:11;1.50;;;1.40;;
42420;SDS011;28063;48.140;11.588;2023-06-14T06:22:40;1.30;;;1.20;;
42420;SDS011;28063;48.140;11.588;2023-06-14T06:25:09;1.45;;;1.35;;
42420;SDS011;28063;48.140;11.588;2023-06-14T06:27:47;1.25;;;1.25;;
42420;SDS011;28063;48.140;11.588;2023-06-14T06:30:18;1.10;;;1.10;;
42420;SDS011;28063;48.140;11.588;2023-06-14T06:32:44;1.42;;;1.33;;
42420;SDS011;28063;48.140;11.588;2023-06-14T06:35:15;1.23;;;1.23;;
42420;SDS011;28063;48.140;11.588;2023-06-14T06:37:44;2.25;;;1.85;;
42420;SDS011;28063;48.140;11.588;2023-06-14T06:40:15;2.20;;;1.80;;
42420;SDS011;28063;48.140;11.588;2023-06-14T06:42:51;3.00;;;1.73;;
42420;SDS011;28063;48.140;11.588;2023-06-14T06:47:50;2.10;;;1.90;;
42420;SDS011;28063;48.140;11.588;2023-06-14T06:50:23;4.20;;;2.42;;
42420;SDS011;28063;48.140;11.588;2023-06-14T06:52:52;2.20;;;2.10;;
42420;SDS011;28063;48.140;11.588;2023-06-14T06:55:23;1.90;;;1.80;;
42420;SDS011;28063;48.140;11.588;2023-06-14T06:57:49;1.83;;;1.73;;
42420;SDS011;28063;48.140;11.588;2023-06-14T07:02:49;4.38;;;2.67;;
42420;SDS011;28063;48.140;11.588;2023-06-14T07:05:16;2.95;;;2.17;;
42420;SDS011;28063;48.140;11.588;2023-06-14T07:07:41;2.42;;;2.13;;
42420;SDS011;28063;48.140;11.588;2023-06-14T07:10:18;3.38;;;1.83;;
42420;SDS011;28063;48.140;11.588;2023-06-14T07:12:53;1.83;;;1.70;;
42420;SDS011;28063;48.140;11.588;2023-06-14T07:15:19;1.95;;;1.85;;
42420;SDS011;28063;48.140;11.588;2023-06-14T07:17:48;1.80;;;1.70;;
42420;SDS011;28063;48.140;11.588;2023-06-14T07:20:18;2.20;;;1.80;;
42420;SDS011;28063;48.140;11.588;2023-06-14T07:22:49;2.00;;;1.52;;
42420;SDS011;28063;48.140;11.588;2023-06-14T07:25:17;1.60;;;1.50;;
42420;SDS011;28063;48.140;11.588;2023-06-14T07:27:48;1.77;;;1.67;;
42420;SDS011;28063;48.140;11.588;2023-06-14T07:30:24;1.55;;;1.45;;
42420;SDS011;28063;48.140;11.588;2023-06-14T07:32:57;1.88;;;1.77;;
42420;SDS011;28063;48.140;11.588;2023-06-14T07:35:48;1.90;;;1.80;;
42420;SDS011;28063;48.140;11.588;2023-06-14T07:38:18;2.65;;;1.90;;
42420;SDS011;28063;48.140;11.588;2023-06-14T07:40:44;1.83;;;1.60;;
42420;SDS011;28063;48.140;11.588;2023-06-14T07:43:22;3.67;;;2.22;;
42420;SDS011;28063;48.140;11.588;2023-06-14T07:45:49;3.60;;;1.92;;
42420;SDS011;28063;48.140;11.588;2023-06-14T07:48:25;5.40;;;2.50;;
42420;SDS011;28063;48.140;11.588;2023-06-14T07:51:03;3.83;;;2.28;;
42420;SDS011;28063;48.140;11.588;2023-06-14T07:53:34;3.08;;;2.60;;
42420;SDS011;28063;48.140;11.588;2023-06-14T07:56:07;2.10;;;1.90;;
42420;SDS011;28063;48.140;11.588;2023-06-14T07:58:43;3.10;;;2.03;;
42420;SDS011;28063;48.140;11.588;2023-06-14T08:01:11;2.20;;;2.00;;
42420;SDS011;28063;48.140;11.588;2023-06-14T08:03:40;1.95;;;1.83;;
42420;SDS011;28063;48.140;11.588;2023-06-14T08:06:06;1.88;;;1.75;;
42420;SDS011;28063;48.140;11.588;2023-06-14T08:08:37;1.77;;;1.60;;
42420;SDS011;28063;48.140;11.588;2023-06-14T08:11:03;2.30;;;1.60;;
42420;SDS011;28063;48.140;11.588;2023-06-14T08:13:31;3.50;;;1.95;;
42420;SDS011;28063;48.140;11.588;2023-06-14T08:15:57;3.08;;;1.98;;
42420;SDS011;28063;48.140;11.588;2023-06-14T08:18:29;5.82;;;2.80;;
42420;SDS011;28063;48.140;11.588;2023-06-14T08:20:57;3.70;;;2.40;;
42420;SDS011;28063;48.140;11.588;2023-06-14T08:23:23;4.90;;;2.17;;
42420;SDS011;28063;48.140;11.588;2023-06-14T08:25:49;3.08;;;2.65;;
42420;SDS011;28063;48.140;11.588;2023-06-14T08:28:18;3.78;;;2.25;;
42420;SDS011;28063;48.140;11.588;2023-06-14T08:30:52;2.40;;;2.10;;
42420;SDS011;28063;48.140;11.588;2023-06-14T08:33:20;3.67;;;1.92;;
42420;SDS011;28063;48.140;11.588;2023-06-14T08:35:52;3.45;;;2.30;;
42420;SDS011;28063;48.140;11.588;2023-06-14T08:38:23;2.05;;;1.95;;
42420;SDS011;28063;48.140;11.588;2023-06-14T08:40:51;2.80;;;2.47;;
42420;SDS011;28063;48.140;11.588;2023-06-14T08:43:24;2.45;;;1.92;;
42420;SDS011;28063;48.140;11.588;2023-06-14T08:45:53;2.50;;;1.90;;
42420;SDS011;28063;48.140;11.588;2023-06-14T08:48:50;1.58;;;1.48;;
42420;SDS011;28063;48.140;11.588;2023-06-14T08:51:19;1.80;;;1.70;;
42420;SDS011;28063;48.140;11.588;2023-06-14T08:53:51;5.15;;;2.70;;
42420;SDS011;28063;48.140;11.588;2023-06-14T08:56:32;4.15;;;2.50;;
42420;SDS011;28063;48.140;11.588;2023-06-14T08:58:59;2.35;;;2.15;;
42420;SDS011;28063;48.140;11.588;2023-06-14T09:01:39;2.17;;;2.08;;
42420;SDS011;28063;48.140;11.588;2023-06-14T09:04:08;7.65;;;2.50;;
42420;SDS011;28063;48.140;11.588;2023-06-14T09:06:39;4.72;;;2.13;;
42420;SDS011;28063;48.140;11.588;2023-06-14T09:09:08;2.25;;;2.05;;
42420;SDS011;28063;48.140;11.588;2023-06-14T09:11:42;3.72;;;2.58;;
42420;SDS011;28063;48.140;11.588;2023-06-14T09:14:08;3.67;;;2.45;;
42420;SDS011;28063;48.140;11.588;2023-06-14T09:16:38;4.60;;;2.28;;
42420;SDS011;28063;48.140;11.588;2023-06-14T09:19:04;3.65;;;2.70;;
42420;SDS011;28063;48.140;11.588;2023-06-14T09:21:38;1.80;;;1.70;;
42420;SDS011;28063;48.140;11.588;2023-06-14T09:24:05;1.98;;;1.88;;
42420;SDS011;28063;48.140;11.588;2023-06-14T09:26:46;3.92;;;2.63;;
42420;SDS011;28063;48.140;11.588;2023-06-14T09:29:30;2.70;;;2.05;;
42420;SDS011;28063;48.140;11.588;2023-06-14T09:31:57;3.20;;;2.20;;
42420;SDS011;28063;48.140;11.588;2023-06-14T09:34:27;5.53;;;2.45;;
42420;SDS011;28063;48.140;11.588;2023-06-14T09:36:53;3.40;;;2.25;;
42420;SDS011;28063;48.140;11.588;2023-06-14T09:39:22;4.03;;;2.35;;
42420;SDS011;28063;48.140;11.588;2023-06-14T09:41:47;5.32;;;2.40;;
42420;SDS011;28063;48.140;11.588;2023-06-14T09:44:13;1.70;;;1.58;;
42420;SDS011;28063;48.140;11.588;2023-06-14T09:46:42;1.90;;;1.80;;
42420;SDS011;28063;48.140;11.588;2023-06-14T09:51:42;2.65;;;2.17;;
42420;SDS011;28063;48.140;11.588;2023-06-14T09:54:18;2.72;;;2.20;;
42420;SDS011;28063;48.140;11.588;2023-06-14T09:56:50;1.90;;;1.80;;
42420;SDS011;28063;48.140;11.588;2023-06-14T09:59:19;2.65;;;2.15;;
42420;SDS011;28063;48.140;11.588;2023-06-14T10:01:54;2.03;;;1.92;;
42420;SDS011;28063;48.140;11.588;2023-06-14T10:04:25;2.70;;;2.50;;
42420;SDS011;28063;48.140;11.588;2023-06-14T10:06:56;2.90;;;2.28;;
42420;SDS011;28063;48.140;11.588;2023-06-14T10:09:30;2.45;;;2.20;;
42420;SDS011;28063;48.140;11.588;2023-06-14T10:12:06;2.15;;;1.95;;
42420;SDS011;28063;48.140;11.588;2023-06-14T10:14:44;2.35;;;1.92;;
42420;SDS011;28063;48.140;11.588;2023-06-14T10:17:40;2.70;;;2.50;;
42420;SDS011;28063;48.140;11.588;2023-06-14T10:23:04;7.03;;;2.72;;
42420;SDS011;28063;48.140;11.588;2023-06-14T10:25:41;6.25;;;2.83;;
42420;SDS011;28063;48.140;11.588;2023-06-14T10:28:22;2.55;;;2.17;;
42420;SDS011;28063;48.140;11.588;2023-06-14T10:33:36;4.75;;;2.65;;
42420;SDS011;28063;48.140;11.588;2023-06-14T10:36:37;3.35;;;2.50;;
42420;SDS011;28063;48.140;11.588;2023-06-14T10:38:59;3.20;;;2.38;;
42420;SDS011;28063;48.140;11.588;2023-06-14T10:41:29;2.63;;;2.33;;
42420;SDS011;28063;48.140;11.588;2023-06-14T10:46:48;3.17;;;2.60;;
42420;SDS011;28063;48.140;11.588;2023-06-14T10:49:18;3.25;;;2.83;;
42420;SDS011;28063;48.140;11.588;2023-06-14T10:51:45;7.38;;;2.95;;
42420;SDS011;28063;48.140;11.588;2023-06-14T10:54:12;4.88;;;2.38;;
42420;SDS011;28063;48.140;11.588;2023-06-14T10:56:41;4.50;;;3.25;;
42420;SDS011;28063;48.140;11.588;2023-06-14T10:59:14;3.17;;;2.58;;
42420;SDS011;28063;48.140;11.588;2023-06-14T11:04:54;2.83;;;2.63;;
42420;SDS011;28063;48.140;11.588;2023-06-14T11:07:29;7.22;;;3.38;;
42420;SDS011;28063;48.140;11.588;2023-06-14T11:10:30;2.70;;;2.30;;
42420;SDS011;28063;48.140;11.588;2023-06-14T11:13:06;2.53;;;2.30;;
42420;SDS011;28063;48.140;11.588;2023-06-14T11:15:43;2.92;;;2.08;;
42420;SDS011;28063;48.140;11.588;2023-06-14T11:18:15;3.08;;;2.63;;
42420;SDS011;28063;48.140;11.588;2023-06-14T11:20:49;2.67;;;2.30;;
42420;SDS011;28063;48.140;11.588;2023-06-14T11:23:17;4.22;;;3.05;;
42420;SDS011;28063;48.140;11.588;2023-06-14T11:25:55;2.72;;;2.47;;
42420;SDS011;28063;48.140;11.588;2023-06-14T11:28:35;2.20;;;2.05;;
42420;SDS011;28063;48.140;11.588;2023-06-14T11:31:05;2.78;;;2.55;;
42420;SDS011;28063;48.140;11.588;2023-06-14T11:33:31;2.95;;;2.38;;
42420;SDS011;28063;48.140;11.588;2023-06-14T11:36:05;2.50;;;2.30;;
42420;SDS011;28063;48.140;11.588;2023-06-14T11:38:36;1.98;;;1.77;;
42420;SDS011;28063;48.140;11.588;2023-06-14T11:41:02;4.93;;;2.40;;
42420;SDS011;28063;48.140;11.588;2023-06-14T11:43:33;4.43;;;2.70;;
42420;SDS011;28063;48.140;11.588;2023-06-14T11:46:11;3.92;;;2.70;;
42420;SDS011;28063;48.140;11.588;2023-06-14T11:48:42;3.47;;;2.60;;
42420;SDS011;28063;48.140;11.588;2023-06-14T11:51:11;2.72;;;2.45;;
42420;SDS011;28063;48.140;11.588;2023-06-14T11:53:55;2.55;;;2.17;;
42420;SDS011;28063;48.140;11.588;2023-06-14T11:56:24;4.03;;;2.45;;
42420;SDS011;28063;48.140;11.588;2023-06-14T11:58:53;3.05;;;2.50;;
42420;SDS011;28063;48.140;11.588;2023-06-14T12:01:22;3.30;;;2.45;;
42420;SDS011;28063;48.140;11.588;2023-06-14T12:03:52;3.00;;;2.47;;
42420;SDS011;28063;48.140;11.588;2023-06-14T12:06:29;4.70;;;3.03;;
42420;SDS011;28063;48.140;11.588;2023-06-14T12:08:58;5.75;;;2.72;;
42420;SDS011;28063;48.140;11.588;2023-06-14T12:14:18;3.00;;;2.80;;
42420;SDS011;28063;48.140;11.588;2023-06-14T12:17:03;3.50;;;2.63;;
42420;SDS011;28063;48.140;11.588;2023-06-14T12:19:45;2.58;;;2.38;;
42420;SDS011;28063;48.140;11.588;2023-06-14T12:22:30;2.22;;;2.03;;
42420;SDS011;28063;48.140;11.588;2023-06-14T12:24:59;2.65;;;2.42;;
42420;SDS011;28063;48.140;11.588;2023-06-14T12:27:34;4.50;;;2.28;;
42420;SDS011;28063;48.140;11.588;2023-06-14T12:30:02;2.20;;;2.03;;
42420;SDS011;28063;48.140;11.588;2023-06-14T12:32:35;3.00;;;2.70;;
42420;SDS011;28063;48.140;11.588;2023-06-14T12:35:06;3.20;;;2.63;;
42420;SDS011;28063;48.140;11.588;2023-06-14T12:37:40;3.45;;;2.40;;
42420;SDS011;28063;48.140;11.588;2023-06-14T12:40:09;3.90;;;2.33;;
42420;SDS011;28063;48.140;11.588;2023-06-14T12:42:42;2.20;;;2.00;;
42420;SDS011;28063;48.140;11.588;2023-06-14T12:45:08;2.35;;;2.22;;
42420;SDS011;28063;48.140;11.588;2023-06-14T12:47:39;4.55;;;2.42;;
42420;SDS011;28063;48.140;11.588;2023-06-14T12:50:12;5.47;;;2.70;;
42420;SDS011;28063;48.140;11.588;2023-06-14T12:52:38;2.55;;;2.25;;
42420;SDS011;28063;48.140;11.588;2023-06-14T12:55:17;2.47;;;2.10;;
42420;SDS011;28063;48.140;11.588;2023-06-14T12:57:53;3.50;;;2.60;;
42420;SDS011;28063;48.140;11.588;2023-06-14T13:00:22;3.28;;;2.97;;
42420;SDS011;28063;48.140;11.588;2023-06-14T13:02:51;4.55;;;3.10;;
42420;SDS011;28063;48.140;11.588;2023-06-14T13:05:19;2.25;;;2.10;;
42420;SDS011;28063;48.140;11.588;2023-06-14T13:07:45;2.42;;;2.22;;
42420;SDS011;28063;48.140;11.588;2023-06-14T13:10:14;4.72;;;2.95;;
42420;SDS011;28063;48.140;11.588;2023-06-14T13:12:40;3.63;;;2.70;;
42420;SDS011;28063;48.140;11.588;2023-06-14T13:15:06;2.63;;;2.42;;
42420;SDS011;28063;48.140;11.588;2023-06-14T13:17:35;2.85;;;2.53;;
42420;SDS011;28063;48.140;11.588;2023-06-14T13:20:07;3.63;;;2.60;;
42420;SDS011;28063;48.140;11.588;2023-06-14T13:22:35;2.92;;;2.70;;
42420;SDS011;28063;48.140;11.588;2023-06-14T13:25:01;2.75;;;2.55;;
42420;SDS011;28063;48.140;11.588;2023-06-14T13:27:32;3.00;;;2.70;;
42420;SDS011;28063;48.140;11.588;2023-06-14T13:30:01;2.55;;;1.98;;
42420;SDS011;28063;48.140;11.588;2023-06-14T13:32:33;3.15;;;2.08;;
42420;SDS011;28063;48.140;11.588;2023-06-14T13:35:07;5.30;;;3.42;;
42420;SDS011;28063;48.140;11.588;2023-06-14T13:37:38;3.83;;;2.40;;
42420;SDS011;28063;48.140;11.588;2023-06-14T13:40:07;3.00;;;2.80;;
42420;SDS011;28063;48.140;11.588;2023-06-14T13:42:33;4.55;;;2.40;;
42420;SDS011;28063;48.140;11.588;2023-06-14T13:45:07;3.13;;;2.83;;
42420;SDS011;28063;48.140;11.588;2023-06-14T13:47:35;2.65;;;2.45;;
42420;SDS011;28063;48.140;11.588;2023-06-14T13:50:05;2.17;;;1.95;;
42420;SDS011;28063;48.140;11.588;2023-06-14T13:52:31;2.05;;;1.95;;
42420;SDS011;28063;48.140;11.588;2023-06-14T13:54:57;2.40;;;2.20;;
42420;SDS011;28063;48.140;11.588;2023-06-14T13:57:25;2.10;;;2.00;;
42420;SDS011;28063;48.140;11.588;2023-06-14T13:59:52;1.92;;;1.83;;
42420;SDS011;28063;48.140;11.588;2023-06-14T14:02:34;2.35;;;2.15;;
42420;SDS011;28063;48.140;11.588;2023-06-14T14:05:02;3.05;;;2.83;;
42420;SDS011;28063;48.140;11.588;2023-06-14T14:07:30;5.35;;;2.70;;
42420;SDS011;28063;48.140;11.588;2023-06-14T14:09:56;2.97;;;2.70;;
42420;SDS011;28063;48.140;11.588;2023-06-14T14:12:22;2.83;;;2.58;;
42420;SDS011;28063;48.140;11.588;2023-06-14T14:14:50;2.78;;;2.53;;
42420;SDS011;28063;48.140;11.588;2023-06-14T14:17:24;2.60;;;2.40;;
42420;SDS011;28063;48.140;11.588;2023-06-14T14:19:53;2.35;;;2.15;;
42420;SDS011;28063;48.140;11.588;2023-06-14T14:22:19;3.47;;;2.47;;
42420;SDS011;28063;48.140;11.588;2023-06-14T14:24:47;4.20;;;2.45;;
42420;SDS011;28063;48.140;11.588;2023-06-14T14:27:21;2.70;;;2.50;;
42420;SDS011;28063;48.140;11.588;2023-06-14T14:29:47;3.95;;;2.28;;
42420;SDS011;28063;48.140;11.588;2023-06-14T14:32:12;2.70;;;2.50;;
42420;SDS011;28063;48.140;11.588;2023-06-14T14:34:39;2.35;;;2.15;;
42420;SDS011;28063;48.140;11.588;2023-06-14T14:37:05;3.50;;;2.53;;
42420;SDS011;28063;48.140;11.588;2023-06-14T14:39:33;3.00;;;2.65;;
42420;SDS011;28063;48.140;11.588;2023-06-14T14:41:59;2.67;;;2.45;;
42420;SDS011;28063;48.140;11.588;2023-06-14T14:44:28;3.42;;;2.42;;
42420;SDS011;28063;48.140;11.588;2023-06-14T14:46:57;2.38;;;2.20;;
42420;SDS011;28063;48.140;11.588;2023-06-14T14:49:23;2.50;;;2.30;;
42420;SDS011;28063;48.140;11.588;2023-06-14T14:51:51;3.53;;;2.10;;
42420;SDS011;28063;48.140;11.588;2023-06-14T14:54:17;2.53;;;2.30;;
42420;SDS011;28063;48.140;11.588;2023-06-14T14:56:48;4.43;;;2.70;;
42420;SDS011;28063;48.140;11.588;2023-06-14T14:59:16;3.75;;;2.42;;
42420;SDS011;28063;48.140;11.588;2023-06-14T15:01:43;4.00;;;2.63;;
42420;SDS011;28063;48.140;11.588;2023-06-14T15:04:22;2.70;;;2.47;;
42420;SDS011;28063;48.140;11.588;2023-06-14T15:06:50;2.88;;;2.45;;
42420;SDS011;28063;48.140;11.588;2023-06-14T15:09:27;3.20;;;2.40;;
42420;SDS011;28063;48.140;11.588;2023-06-14T15:11:53;4.63;;;2.75;;
42420;SDS011;28063;48.140;11.588;2023-06-14T15:14:22;3.97;;;3.00;;
42420;SDS011;28063;48.140;11.588;2023-06-14T15:16:50;4.10;;;2.30;;
42420;SDS011;28063;48.140;11.588;2023-06-14T15:19:18;3.15;;;2.10;;
42420;SDS011;28063;48.140;11.588;2023-06-14T15:21:47;2.60;;;2.40;;
42420;SDS011;28063;48.140;11.588;2023-06-14T15:24:13;2.53;;;2.30;;
42420;SDS011;28063;48.140;11.588;2023-06-14T15:26:39;7.60;;;2.85;;